Observation data for Haskell on 11/14/2019      Previous  Date  Next       Current Mesonet Observations  Soil Data  Daily Summary Page  Observations in Plain Language
KHA1 140600Z 16004KT 04/01 A3008 RMK A01 T00350010  RH  084%=      5-min Rain = 0
KHA1 140605Z 17004KT 04/01 A3008 RMK A01 T00350010  RH  085%=      5-min Rain = 0
KHA1 140610Z 17004KT 04/01 A3008 RMK A01 T00350010  RH  085%=      5-min Rain = 0
KHA1 140615Z 17004KT 04/01 A3008 RMK A01 T00350010  RH  085%=      5-min Rain = 0
KHA1 140620Z 17003KT 03/01 A3008 RMK A01 T00340010  RH  085%=      5-min Rain = 0
KHA1 140625Z 17003KT 03/01 A3008 RMK A01 T00330009  RH  085%=      5-min Rain = 0
KHA1 140630Z 18003KT 03/01 A3008 RMK A01 T00320009  RH  086%=      5-min Rain = 0
KHA1 140635Z 17003KT 03/01 A3008 RMK A01 T00310008  RH  086%=      5-min Rain = 0
KHA1 140640Z 18003KT 03/01 A3008 RMK A01 T00310008  RH  086%=      5-min Rain = 0
KHA1 140645Z 18004KT 03/01 A3008 RMK A01 T00300008  RH  087%=      5-min Rain = 0
KHA1 140650Z 18004KT 03/01 A3008 RMK A01 T00290007  RH  087%=      5-min Rain = 0
KHA1 140655Z 18004KT 03/01 A3008 RMK A01 T00290008  RH  088%=      5-min Rain = 0
KHA1 140700Z 18004KT 03/01 A3009 RMK A01 T00290008  RH  088%=      5-min Rain = 0
KHA1 140705Z 18004KT 03/01 A3009 RMK A01 T00270006  RH  088%=      5-min Rain = 0
KHA1 140710Z 19003KT 02/00 A3009 RMK A01 T002000-0  RH  087%=      5-min Rain = 0
KHA1 140715Z 17002KT 02/M00 A301 RMK A01 T00181001  RH  088%=      5-min Rain = 0
KHA1 140720Z 19003KT 02/01 A301 RMK A01 T00220005  RH  090%=      5-min Rain = 0
KHA1 140725Z 19004KT 02/00 A301 RMK A01 T00210004  RH  089%=      5-min Rain = 0
KHA1 140730Z 20004KT 02/00 A301 RMK A01 T00180001  RH  089%=      5-min Rain = 0
KHA1 140735Z 20004KT 02/00 A301 RMK A01 T00170000  RH  090%=      5-min Rain = 0
KHA1 140740Z 20004KT 02/00 A301 RMK A01 T001500-0  RH  091%=      5-min Rain = 0
KHA1 140745Z 21004KT 02/00 A301 RMK A01 T00160002  RH  091%=      5-min Rain = 0
KHA1 140750Z 22004KT 02/00 A3011 RMK A01 T00150000  RH  091%=      5-min Rain = 0
KHA1 140755Z 23005KT 01/00 A3011 RMK A01 T001300-0  RH  092%=      5-min Rain = 0
KHA1 140800Z 23003KT 01/M00 A3011 RMK A01 T00111003  RH  091%=      5-min Rain = 0
KHA1 140805Z 24003KT 01/M01 A3011 RMK A01 T00051009  RH  091%=      5-min Rain = 0
KHA1 140810Z 26004KT 00/M01 A3011 RMK A01 T00031012  RH  091%=      5-min Rain = 0
KHA1 140815Z 26004KT M01/M02 A3011 RMK A01 T10071020  RH  091%=      5-min Rain = 0
KHA1 140820Z 26003KT M01/M02 A3012 RMK A01 T10061018  RH  092%=      5-min Rain = 0
KHA1 140825Z 26001KT M01/M02 A3012 RMK A01 T10081020  RH  092%=      5-min Rain = 0
KHA1 140830Z 00000KT M00/M02 A3012 RMK A01 T10041015  RH  093%=      5-min Rain = 0
KHA1 140835Z 04002KT M00/M01 A3012 RMK A01 T10011011  RH  093%=      5-min Rain = 0
KHA1 140840Z 05003KT 00/M01 A3013 RMK A01 T00011010  RH  093%=      5-min Rain = 0
KHA1 140845Z 04004KT 00/M01 A3013 RMK A01 T00011009  RH  094%=      5-min Rain = 0
KHA1 140850Z 04004KT 00/01 A3013 RMK A01 T00-00-11  RH  093%=      5-min Rain = 0
KHA1 140855Z 03005KT M01/M02 A3013 RMK A01 T10061017  RH  093%=      5-min Rain = 0
KHA1 140900Z 03005KT M01/M02 A3013 RMK A01 T10111022  RH  093%=      5-min Rain = 0
KHA1 140905Z 01006KT M01/M02 A3013 RMK A01 T10121022  RH  094%=      5-min Rain = 0
KHA1 140910Z 01007KT M01/M02 A3013 RMK A01 T10101019  RH  095%=      5-min Rain = 0
KHA1 140915Z 00006KT M01/M02 A3013 RMK A01 T10101020  RH  094%=      5-min Rain = 0
KHA1 140920Z 00005KT M01/M02 A3014 RMK A01 T10111019  RH  094%=      5-min Rain = 0
KHA1 140925Z 00005KT M01/M02 A3014 RMK A01 T10111020  RH  095%=      5-min Rain = 0
KHA1 140930Z 36004KT M01/M02 A3014 RMK A01 T10121020  RH  095%=      5-min Rain = 0
KHA1 140935Z 36005KT M01/M02 A3014 RMK A01 T10101018  RH  095%=      5-min Rain = 0
KHA1 140940Z 01005KT M01/M01 A3015 RMK A01 T10061014  RH  095%=      5-min Rain = 0
KHA1 140945Z 01005KT M00/M01 A3015 RMK A01 T10041012  RH  095%=      5-min Rain = 0
KHA1 140950Z 00005KT M00/M01 A3015 RMK A01 T10041012  RH  095%=      5-min Rain = 0
KHA1 140955Z 01005KT M01/M01 A3015 RMK A01 T10051013  RH  095%=      5-min Rain = 0
KHA1 141000Z 01006KT M01/M01 A3015 RMK A01 T10051013  RH  095%=      5-min Rain = 0
KHA1 141005Z 00006KT M01/M01 A3015 RMK A01 T10051013  RH  095%=      5-min Rain = 0
KHA1 141010Z 36006KT M00/M01 A3016 RMK A01 T10041012  RH  095%=      5-min Rain = 0
KHA1 141015Z 36007KT M00/M01 A3016 RMK A01 T10031011  RH  095%=      5-min Rain = 0
KHA1 141020Z 36007KT M00/M01 A3016 RMK A01 T10021010  RH  095%=      5-min Rain = 0
KHA1 141025Z 36007KT M00/M01 A3016 RMK A01 T10011009  RH  095%=      5-min Rain = 0
KHA1 141030Z 36007KT M00/M01 A3016 RMK A01 T10011009  RH  095%=      5-min Rain = 0
KHA1 141035Z 35007KT M00/M01 A3016 RMK A01 T10011009  RH  095%=      5-min Rain = 0
KHA1 141040Z 35007KT 00/01 A3017 RMK A01 T00-000-9  RH  095%=      5-min Rain = 0
KHA1 141045Z 35007KT M00/M01 A3017 RMK A01 T10011009  RH  095%=      5-min Rain = 0
KHA1 141050Z 35007KT M00/M01 A3017 RMK A01 T10011010  RH  095%=      5-min Rain = 0
KHA1 141055Z 34007KT M00/M01 A3017 RMK A01 T10031012  RH  095%=      5-min Rain = 0
KHA1 141100Z 35007KT M00/M01 A3017 RMK A01 T10041013  RH  095%=      5-min Rain = 0
KHA1 141105Z 35007KT M01/M01 A3018 RMK A01 T10051014  RH  094%=      5-min Rain = 0
KHA1 141110Z 35008KT M01/M02 A3018 RMK A01 T10061015  RH  094%=      5-min Rain = 0
KHA1 141115Z 35008KT M01/M02 A3018 RMK A01 T10061015  RH  094%=      5-min Rain = 0
KHA1 141120Z 34009KT M01/M02 A3019 RMK A01 T10071016  RH  094%=      5-min Rain = 0
KHA1 141125Z 35008KT M01/M02 A3019 RMK A01 T10071017  RH  094%=      5-min Rain = 0
KHA1 141130Z 35009KT M01/M02 A3019 RMK A01 T10081018  RH  094%=      5-min Rain = 0
KHA1 141135Z 34009KT M01/M02 A3019 RMK A01 T10081018  RH  094%=      5-min Rain = 0
KHA1 141140Z 34009KT M01/M02 A302 RMK A01 T10091019  RH  094%=      5-min Rain = 0
KHA1 141145Z 35009KT M01/M02 A302 RMK A01 T10091019  RH  094%=      5-min Rain = 0
KHA1 141150Z 35009KT M01/M02 A302 RMK A01 T10091020  RH  093%=      5-min Rain = 0
KHA1 141155Z 35010KT M01/M02 A3021 RMK A01 T10091020  RH  093%=      5-min Rain = 0
KHA1 141200Z 35009KT M01/M02 A3021 RMK A01 T10091020  RH  093%=      5-min Rain = 0
KHA1 141205Z 36009KT M01/M02 A3021 RMK A01 T10091021  RH  092%=      5-min Rain = 0
KHA1 141210Z 36009KT M01/M02 A3021 RMK A01 T10091021  RH  092%=      5-min Rain = 0
KHA1 141215Z 36009KT M01/M02 A3022 RMK A01 T10101022  RH  092%=      5-min Rain = 0
KHA1 141220Z 36009KT M01/M02 A3022 RMK A01 T10101023  RH  092%=      5-min Rain = 0
KHA1 141225Z 36009KT M01/M02 A3022 RMK A01 T10111023  RH  092%=      5-min Rain = 0
KHA1 141230Z 36010KT M01/M02 A3023 RMK A01 T10111023  RH  092%=      5-min Rain = 0
KHA1 141235Z 35009KT M01/M02 A3023 RMK A01 T10121024  RH  092%=      5-min Rain = 0
KHA1 141240Z 35009KT M01/M02 A3023 RMK A01 T10121024  RH  092%=      5-min Rain = 0
KHA1 141245Z 35010KT M01/M02 A3023 RMK A01 T10121024  RH  092%=      5-min Rain = 0
KHA1 141250Z 36009KT M01/M03 A3024 RMK A01 T10121025  RH  092%=      5-min Rain = 0
KHA1 141255Z 36009KT M01/M03 A3024 RMK A01 T10121025  RH  092%=      5-min Rain = 0
KHA1 141300Z 36009KT M01/M03 A3024 RMK A01 T10131026  RH  092%=      5-min Rain = 0
KHA1 141305Z 36008KT M01/M03 A3025 RMK A01 T10131026  RH  091%=      5-min Rain = 0
KHA1 141310Z 35009KT M01/M03 A3025 RMK A01 T10141027  RH  091%=      5-min Rain = 0
KHA1 141315Z 35009KT M01/M03 A3025 RMK A01 T10141027  RH  092%=      5-min Rain = 0
KHA1 141320Z 35009KT M01/M03 A3025 RMK A01 T10141027  RH  092%=      5-min Rain = 0
KHA1 141325Z 35008KT M01/M03 A3026 RMK A01 T10141026  RH  092%=      5-min Rain = 0
KHA1 141330Z 35008KT M01/M03 A3026 RMK A01 T10131026  RH  092%=      5-min Rain = 0
KHA1 141335Z 35009KT M01/M03 A3026 RMK A01 T10131025  RH  092%=      5-min Rain = 0
KHA1 141340Z 35008KT M01/M02 A3027 RMK A01 T10111024  RH  092%=      5-min Rain = 0
KHA1 141345Z 35008KT M01/M02 A3027 RMK A01 T10101024  RH  091%=      5-min Rain = 0
KHA1 141350Z 35008KT M01/M02 A3028 RMK A01 T10091023  RH  091%=      5-min Rain = 0
KHA1 141355Z 36008KT M01/M02 A3028 RMK A01 T10071022  RH  090%=      5-min Rain = 0
KHA1 141400Z 36008KT M01/M02 A3028 RMK A01 T10061022  RH  090%=      5-min Rain = 0
KHA1 141405Z 36008KT M00/M02 A3029 RMK A01 T10031021  RH  089%=      5-min Rain = 0
KHA1 141410Z 36008KT M00/M02 A3029 RMK A01 T10011021  RH  087%=      5-min Rain = 0
KHA1 141415Z 36008KT 00/M02 A3029 RMK A01 T00011021  RH  086%=      5-min Rain = 0
KHA1 141420Z 36008KT 00/M02 A303 RMK A01 T00011022  RH  085%=      5-min Rain = 0
KHA1 141425Z 35008KT 00/M02 A303 RMK A01 T00041020  RH  084%=      5-min Rain = 0
KHA1 141430Z 36008KT 01/M02 A3031 RMK A01 T00051021  RH  083%=      5-min Rain = 0
KHA1 141435Z 35007KT 01/M02 A3031 RMK A01 T00071021  RH  082%=      5-min Rain = 0
KHA1 141440Z 36007KT 01/M02 A3031 RMK A01 T00111020  RH  081%=      5-min Rain = 0
KHA1 141445Z 36008KT 01/M02 A3032 RMK A01 T00121022  RH  079%=      5-min Rain = 0
KHA1 141450Z 36009KT 02/M02 A3032 RMK A01 T00171022  RH  076%=      5-min Rain = 0
KHA1 141455Z 36011KT 02/M02 A3032 RMK A01 T00191023  RH  074%=      5-min Rain = 0
KHA1 141500Z 36011KT 02/M02 A3033 RMK A01 T00211023  RH  073%=      5-min Rain = 0
KHA1 141505Z 36009KT 03/M02 A3033 RMK A01 T00251020  RH  073%=      5-min Rain = 0
KHA1 141510Z 00010KT 03/M02 A3033 RMK A01 T00281021  RH  071%=      5-min Rain = 0
KHA1 141515Z 01010KT 03/M02 A3034 RMK A01 T00321020  RH  069%=      5-min Rain = 0
KHA1 141520Z 01011KT 04/M02 A3034 RMK A01 T00361021  RH  067%=      5-min Rain = 0
KHA1 141525Z 01009G14KT 04/M02 A3034 RMK A01 T00411019  RH  065%=      5-min Rain = 0
KHA1 141530Z 01011KT 04/M02 A3035 RMK A01 T00431020  RH  064%=      5-min Rain = 0
KHA1 141535Z 02012KT 05/M02 A3035 RMK A01 T00481020  RH  062%=      5-min Rain = 0
KHA1 141540Z 02011KT 05/M02 A3035 RMK A01 T00531019  RH  060%=      5-min Rain = 0
KHA1 141545Z 02011KT 06/M02 A3035 RMK A01 T00581017  RH  059%=      5-min Rain = 0
KHA1 141550Z 03013G18KT 06/M02 A3036 RMK A01 T00601021  RH  056%=      5-min Rain = 0
KHA1 141555Z 03013KT 06/M02 A3036 RMK A01 T00621020  RH  056%=      5-min Rain = 0
KHA1 141600Z 03014KT 06/M02 A3036 RMK A01 T00641018  RH  056%=      5-min Rain = 0
KHA1 141605Z 03014G20KT 07/M02 A3036 RMK A01 T00661016  RH  056%=      5-min Rain = 0
KHA1 141610Z 03014G19KT 07/M02 A3037 RMK A01 T00651015  RH  057%=      5-min Rain = 0
KHA1 141615Z 02012G17KT 07/M01 A3037 RMK A01 T00691010  RH  058%=      5-min Rain = 0
KHA1 141620Z 03014KT 07/M01 A3037 RMK A01 T00721008  RH  057%=      5-min Rain = 0
KHA1 141625Z 03014KT 07/M01 A3037 RMK A01 T00731007  RH  058%=      5-min Rain = 0
KHA1 141630Z 03014G19KT 07/M01 A3037 RMK A01 T00741005  RH  058%=      5-min Rain = 0
KHA1 141635Z 03012KT 08/M00 A3038 RMK A01 T00761003  RH  058%=      5-min Rain = 0
KHA1 141640Z 03015G20KT 08/00 A3038 RMK A01 T00800000  RH  058%=      5-min Rain = 0
KHA1 141645Z 03015G20KT 08/01 A3038 RMK A01 T00830005  RH  059%=      5-min Rain = 0
KHA1 141650Z 04016G21KT 08/00 A3038 RMK A01 T00830003  RH  058%=      5-min Rain = 0
KHA1 141655Z 04018KT 09/01 A3039 RMK A01 T00850006  RH  058%=      5-min Rain = 0
KHA1 141700Z 03017G22KT 09/01 A3039 RMK A01 T00870008  RH  058%=      5-min Rain = 0
KHA1 141705Z 03017KT 09/01 A3039 RMK A01 T00870005  RH  057%=      5-min Rain = 0
KHA1 141710Z 03017G22KT 09/01 A3039 RMK A01 T00880005  RH  057%=      5-min Rain = 0
KHA1 141715Z 03016KT 09/01 A3039 RMK A01 T00890005  RH  056%=      5-min Rain = 0
KHA1 141720Z 04014G20KT 09/01 A3039 RMK A01 T00930008  RH  056%=      5-min Rain = 0
KHA1 141725Z 03014KT 09/01 A3038 RMK A01 T00920005  RH  055%=      5-min Rain = 0
KHA1 141730Z 03013KT 10/01 A3038 RMK A01 T00950007  RH  055%=      5-min Rain = 0
KHA1 141735Z 04013KT 10/01 A3038 RMK A01 T00960007  RH  055%=      5-min Rain = 0
KHA1 141740Z 04012G18KT 10/01 A3038 RMK A01 T00950007  RH  055%=      5-min Rain = 0
KHA1 141745Z 04011G16KT 10/01 A3038 RMK A01 T01000010  RH  054%=      5-min Rain = 0
KHA1 141750Z 04011KT 10/01 A3038 RMK A01 T00990007  RH  053%=      5-min Rain = 0
KHA1 141755Z 04012G18KT 10/01 A3038 RMK A01 T01020009  RH  053%=      5-min Rain = 0
KHA1 141800Z 04012KT 11/01 A3038 RMK A01 T01070014  RH  053%=      5-min Rain = 0
KHA1 141805Z 03016G21KT 11/01 A3038 RMK A01 T01080010  RH  051%=      5-min Rain = 0
KHA1 141810Z 04016KT 11/01 A3038 RMK A01 T01080010  RH  051%=      5-min Rain = 0
KHA1 141815Z 05015KT 11/01 A3038 RMK A01 T01090009  RH  051%=      5-min Rain = 0
KHA1 141820Z 04015KT 11/01 A3038 RMK A01 T01090010  RH  051%=      5-min Rain = 0
KHA1 141825Z 04014G19KT 11/01 A3038 RMK A01 T01100009  RH  051%=      5-min Rain = 0
KHA1 141830Z 03016G23KT 11/01 A3037 RMK A01 T01130009  RH  050%=      5-min Rain = 0
KHA1 141835Z 03015G20KT 11/01 A3037 RMK A01 T01140009  RH  049%=      5-min Rain = 0
KHA1 141840Z 04013KT 12/01 A3037 RMK A01 T01150008  RH  049%=      5-min Rain = 0
KHA1 141845Z 03015G23KT 12/01 A3037 RMK A01 T01170008  RH  048%=      5-min Rain = 0
KHA1 141850Z 02018KT 12/00 A3036 RMK A01 T01150002  RH  046%=      5-min Rain = 0
KHA1 141855Z 04015KT 12/00 A3036 RMK A01 T01160003  RH  046%=      5-min Rain = 0
KHA1 141900Z 05013G19KT 12/00 A3036 RMK A01 T01150002  RH  047%=      5-min Rain = 0
KHA1 141905Z 03015KT 12/01 A3036 RMK A01 T01170006  RH  047%=      5-min Rain = 0
KHA1 141910Z 04014G20KT 12/01 A3036 RMK A01 T01180007  RH  047%=      5-min Rain = 0
KHA1 141915Z 04012G17KT 12/01 A3035 RMK A01 T01150006  RH  047%=      5-min Rain = 0
KHA1 141920Z 03014G19KT 12/01 A3035 RMK A01 T01170006  RH  047%=      5-min Rain = 0
KHA1 141925Z 03014KT 12/01 A3035 RMK A01 T01180005  RH  046%=      5-min Rain = 0
KHA1 141930Z 02015KT 12/00 A3035 RMK A01 T01170004  RH  046%=      5-min Rain = 0
KHA1 141935Z 03016G23KT 12/01 A3035 RMK A01 T01180006  RH  047%=      5-min Rain = 0
KHA1 141940Z 03017KT 12/01 A3035 RMK A01 T01190006  RH  046%=      5-min Rain = 0
KHA1 141945Z 03014KT 12/00 A3035 RMK A01 T01190004  RH  046%=      5-min Rain = 0
KHA1 141950Z 03015G21KT 12/01 A3035 RMK A01 T01210006  RH  046%=      5-min Rain = 0
KHA1 141955Z 03015G21KT 12/01 A3035 RMK A01 T01200006  RH  046%=      5-min Rain = 0
KHA1 142000Z 03016KT 12/00 A3035 RMK A01 T01200003  RH  045%=      5-min Rain = 0
KHA1 142005Z 03014KT 12/01 A3035 RMK A01 T01220006  RH  045%=      5-min Rain = 0
KHA1 142010Z 03013KT 12/00 A3034 RMK A01 T01220003  RH  045%=      5-min Rain = 0
KHA1 142015Z 01014G19KT 12/00 A3034 RMK A01 T01210003  RH  045%=      5-min Rain = 0
KHA1 142020Z 03015G20KT 12/00 A3034 RMK A01 T01220003  RH  044%=      5-min Rain = 0
KHA1 142025Z 04014G19KT 12/00 A3034 RMK A01 T01200003  RH  045%=      5-min Rain = 0
KHA1 142030Z 04014G21KT 12/01 A3034 RMK A01 T01210005  RH  045%=      5-min Rain = 0
KHA1 142035Z 04013G18KT 12/01 A3034 RMK A01 T01210005  RH  045%=      5-min Rain = 0
KHA1 142040Z 02011G16KT 12/00 A3034 RMK A01 T01230004  RH  044%=      5-min Rain = 0
KHA1 142045Z 02011KT 13/00 A3034 RMK A01 T01250003  RH  044%=      5-min Rain = 0
KHA1 142050Z 03014G19KT 12/00 A3034 RMK A01 T01240004  RH  044%=      5-min Rain = 0
KHA1 142055Z 02012G19KT 12/00 A3034 RMK A01 T01240004  RH  044%=      5-min Rain = 0
KHA1 142100Z 02013KT 12/00 A3034 RMK A01 T01220001  RH  044%=      5-min Rain = 0
KHA1 142105Z 02013G18KT 12/00 A3034 RMK A01 T01230002  RH  044%=      5-min Rain = 0
KHA1 142110Z 01011KT 12/00 A3034 RMK A01 T01240000  RH  043%=      5-min Rain = 0
KHA1 142115Z 02011KT 12/00 A3034 RMK A01 T01230001  RH  044%=      5-min Rain = 0
KHA1 142120Z 03012G18KT 12/00 A3034 RMK A01 T01230001  RH  044%=      5-min Rain = 0
KHA1 142125Z 04012G17KT 12/00 A3034 RMK A01 T01230002  RH  044%=      5-min Rain = 0
KHA1 142130Z 03015KT 12/00 A3034 RMK A01 T01220001  RH  044%=      5-min Rain = 0
KHA1 142135Z 03013G18KT 12/M00 A3034 RMK A01 T01221001  RH  043%=      5-min Rain = 0
KHA1 142140Z 03013KT 12/00 A3034 RMK A01 T01220001  RH  044%=      5-min Rain = 0
KHA1 142145Z 02011KT 12/00 A3034 RMK A01 T01230001  RH  044%=      5-min Rain = 0
KHA1 142150Z 02012KT 12/M00 A3034 RMK A01 T01231001  RH  043%=      5-min Rain = 0
KHA1 142155Z 04011KT 12/00 A3034 RMK A01 T01220001  RH  044%=      5-min Rain = 0
KHA1 142200Z 02011KT 12/00 A3034 RMK A01 T01230004  RH  044%=      5-min Rain = 0
KHA1 142205Z 03012G18KT 12/00 A3034 RMK A01 T01230003  RH  044%=      5-min Rain = 0
KHA1 142210Z 03012G18KT 12/00 A3034 RMK A01 T01220001  RH  044%=      5-min Rain = 0
KHA1 142215Z 03011KT 12/M00 A3034 RMK A01 T01201001  RH  044%=      5-min Rain = 0
KHA1 142220Z 03012G17KT 12/M00 A3034 RMK A01 T01201001  RH  044%=      5-min Rain = 0
KHA1 142225Z 04012G17KT 12/00 A3034 RMK A01 T01180000  RH  045%=      5-min Rain = 0
KHA1 142230Z 03010KT 12/00 A3034 RMK A01 T01190002  RH  045%=      5-min Rain = 0
KHA1 142235Z 04011KT 12/00 A3034 RMK A01 T01170002  RH  046%=      5-min Rain = 0
KHA1 142240Z 04008KT 12/00 A3034 RMK A01 T01160001  RH  046%=      5-min Rain = 0
KHA1 142245Z 03009KT 12/00 A3034 RMK A01 T01170003  RH  046%=      5-min Rain = 0
KHA1 142250Z 04011KT 12/00 A3035 RMK A01 T01150002  RH  046%=      5-min Rain = 0
KHA1 142255Z 04010KT 11/00 A3035 RMK A01 T01130002  RH  047%=      5-min Rain = 0
KHA1 142300Z 04010KT 11/00 A3035 RMK A01 T01120004  RH  048%=      5-min Rain = 0
KHA1 142305Z 04010KT 11/00 A3035 RMK A01 T01100003  RH  048%=      5-min Rain = 0
KHA1 142310Z 04008KT 11/01 A3035 RMK A01 T01090005  RH  049%=      5-min Rain = 0
KHA1 142315Z 05009KT 11/01 A3035 RMK A01 T01060005  RH  050%=      5-min Rain = 0
KHA1 142320Z 05007KT 11/00 A3035 RMK A01 T01050004  RH  050%=      5-min Rain = 0
KHA1 142325Z 05007KT 10/00 A3035 RMK A01 T01040002  RH  050%=      5-min Rain = 0
KHA1 142330Z 05006KT 10/00 A3035 RMK A01 T01020002  RH  050%=      5-min Rain = 0
KHA1 142335Z 06005KT 10/00 A3036 RMK A01 T00990002  RH  052%=      5-min Rain = 0
KHA1 142340Z 05005KT 10/00 A3036 RMK A01 T00960002  RH  052%=      5-min Rain = 0
KHA1 142345Z 05005KT 09/00 A3036 RMK A01 T00930002  RH  053%=      5-min Rain = 0
KHA1 142350Z 06004KT 09/00 A3036 RMK A01 T00910001  RH  054%=      5-min Rain = 0
KHA1 142355Z 06003KT 09/00 A3036 RMK A01 T008800-0  RH  054%=      5-min Rain = 0
KHA1 150000Z 07003KT 09/M00 A3036 RMK A01 T00851001  RH  056%=      5-min Rain = 0
KHA1 150005Z 06003KT 08/M00 A3036 RMK A01 T00801002  RH  057%=      5-min Rain = 0
KHA1 150010Z 06003KT 08/M00 A3036 RMK A01 T00761001  RH  059%=      5-min Rain = 0
KHA1 150015Z 07003KT 07/M00 A3037 RMK A01 T00731001  RH  060%=      5-min Rain = 0
KHA1 150020Z 06003KT 07/M00 A3037 RMK A01 T00711001  RH  061%=      5-min Rain = 0
KHA1 150025Z 05003KT 07/M00 A3037 RMK A01 T00701001  RH  061%=      5-min Rain = 0
KHA1 150030Z 06003KT 07/M00 A3037 RMK A01 T00711001  RH  061%=      5-min Rain = 0
KHA1 150035Z 06002KT 07/M00 A3037 RMK A01 T00691003  RH  061%=      5-min Rain = 0
KHA1 150040Z 06002KT 07/M00 A3038 RMK A01 T00671004  RH  061%=      5-min Rain = 0
KHA1 150045Z 05003KT 06/M01 A3038 RMK A01 T00631005  RH  062%=      5-min Rain = 0
KHA1 150050Z 05003KT 06/M00 A3038 RMK A01 T00631002  RH  064%=      5-min Rain = 0
KHA1 150055Z 04003KT 06/M00 A3038 RMK A01 T00641001  RH  064%=      5-min Rain = 0
KHA1 150100Z 04003KT 07/M00 A3038 RMK A01 T00651001  RH  064%=      5-min Rain = 0
KHA1 150105Z 04003KT 06/M00 A3038 RMK A01 T00621002  RH  064%=      5-min Rain = 0
KHA1 150110Z 03002KT 06/M00 A3038 RMK A01 T00601001  RH  065%=      5-min Rain = 0
KHA1 150115Z 03002KT 06/M00 A3038 RMK A01 T00581002  RH  066%=      5-min Rain = 0
KHA1 150120Z 04003KT 05/M01 A3039 RMK A01 T00481010  RH  067%=      5-min Rain = 0
KHA1 150125Z 04002KT 04/M02 A3039 RMK A01 T00381015  RH  069%=      5-min Rain = 0
KHA1 150130Z 05002KT 04/M01 A3039 RMK A01 T00381008  RH  073%=      5-min Rain = 0
KHA1 150135Z 05003KT 04/M00 A3039 RMK A01 T00441002  RH  073%=      5-min Rain = 0
KHA1 150140Z 04003KT 04/M00 A3039 RMK A01 T00421004  RH  072%=      5-min Rain = 0
KHA1 150145Z 35005KT 04/M01 A3039 RMK A01 T00351007  RH  075%=      5-min Rain = 0
KHA1 150150Z 36003KT 03/M01 A304 RMK A01 T00261014  RH  076%=      5-min Rain = 0
KHA1 150155Z 35003KT 02/M01 A304 RMK A01 T00221014  RH  078%=      5-min Rain = 0
KHA1 150200Z 34004KT 02/M01 A304 RMK A01 T00211012  RH  079%=      5-min Rain = 0
KHA1 150205Z 32003KT 02/M01 A304 RMK A01 T00191012  RH  080%=      5-min Rain = 0
KHA1 150210Z 32004KT 02/M01 A3041 RMK A01 T00181012  RH  081%=      5-min Rain = 0
KHA1 150215Z 33003KT 02/M01 A3041 RMK A01 T00171012  RH  082%=      5-min Rain = 0
KHA1 150220Z 33003KT 02/M01 A3041 RMK A01 T00191008  RH  083%=      5-min Rain = 0
KHA1 150225Z 33003KT 02/M01 A3041 RMK A01 T00211006  RH  083%=      5-min Rain = 0
KHA1 150230Z 32003KT 02/M01 A3041 RMK A01 T00221005  RH  083%=      5-min Rain = 0
KHA1 150235Z 31003KT 02/M00 A3041 RMK A01 T00221003  RH  084%=      5-min Rain = 0
KHA1 150240Z 31002KT 03/00 A3042 RMK A01 T002500-0  RH  085%=      5-min Rain = 0
KHA1 150245Z 31002KT 03/00 A3042 RMK A01 T00270002  RH  085%=      5-min Rain = 0
KHA1 150250Z 32002KT 03/00 A3042 RMK A01 T00300004  RH  084%=      5-min Rain = 0
KHA1 150255Z 32001KT 03/00 A3042 RMK A01 T00280001  RH  083%=      5-min Rain = 0
KHA1 150300Z 32001KT 02/M00 A3042 RMK A01 T00241003  RH  083%=      5-min Rain = 0
KHA1 150305Z 31001KT 02/M01 A3042 RMK A01 T00221005  RH  084%=      5-min Rain = 0
KHA1 150310Z 31001KT 02/M00 A3042 RMK A01 T00231002  RH  084%=      5-min Rain = 0
KHA1 150315Z 31001KT 02/M00 A3042 RMK A01 T00241001  RH  085%=      5-min Rain = 0
KHA1 150320Z 30001KT 03/00 A3042 RMK A01 T00270002  RH  085%=      5-min Rain = 0
KHA1 150325Z 30001KT 03/01 A3042 RMK A01 T00300005  RH  084%=      5-min Rain = 0
KHA1 150330Z 30000KT 03/00 A3042 RMK A01 T00280000  RH  083%=      5-min Rain = 0
KHA1 150335Z 00000KT 03/00 A3042 RMK A01 T002700-0  RH  083%=      5-min Rain = 0
KHA1 150340Z 00000KT 03/00 A3042 RMK A01 T00270000  RH  083%=      5-min Rain = 0
KHA1 150345Z 33000KT 03/M00 A3042 RMK A01 T00261001  RH  083%=      5-min Rain = 0
KHA1 150350Z 00000KT 03/M00 A3042 RMK A01 T00251001  RH  084%=      5-min Rain = 0
KHA1 150355Z 00000KT 03/M00 A3042 RMK A01 T00251001  RH  084%=      5-min Rain = 0
KHA1 150400Z 33000KT 03/00 A3042 RMK A01 T002600-0  RH  084%=      5-min Rain = 0
KHA1 150405Z 33000KT 03/00 A3042 RMK A01 T00280002  RH  084%=      5-min Rain = 0
KHA1 150410Z 00000KT 03/M00 A3042 RMK A01 T00251003  RH  083%=      5-min Rain = 0
KHA1 150415Z 00000KT 02/M01 A3042 RMK A01 T00181009  RH  083%=      5-min Rain = 0
KHA1 150420Z 00000KT 01/M01 A3042 RMK A01 T00141013  RH  083%=      5-min Rain = 0
KHA1 150425Z 32000KT 01/M02 A3042 RMK A01 T00101015  RH  084%=      5-min Rain = 0
KHA1 150430Z 31001KT 01/M02 A3042 RMK A01 T00071018  RH  084%=      5-min Rain = 0
KHA1 150435Z 31001KT 00/M02 A3042 RMK A01 T00041020  RH  085%=      5-min Rain = 0
KHA1 150440Z 31000KT 00/M02 A3042 RMK A01 T00011022  RH  085%=      5-min Rain = 0
KHA1 150445Z 00000KT 00/M02 A3042 RMK A01 T00021019  RH  086%=      5-min Rain = 0
KHA1 150450Z 31000KT 00/M02 A3042 RMK A01 T00041016  RH  087%=      5-min Rain = 0
KHA1 150455Z 31001KT 01/M02 A3042 RMK A01 T00061015  RH  087%=      5-min Rain = 0
KHA1 150500Z 31002KT 00/M02 A3042 RMK A01 T00041016  RH  087%=      5-min Rain = 0
KHA1 150505Z 31002KT 00/M02 A3042 RMK A01 T00041016  RH  087%=      5-min Rain = 0
KHA1 150510Z 31002KT 01/M01 A3042 RMK A01 T00051014  RH  088%=      5-min Rain = 0
KHA1 150515Z 29002KT 01/M01 A3043 RMK A01 T00061013  RH  088%=      5-min Rain = 0
KHA1 150520Z 29001KT 01/M01 A3043 RMK A01 T00071012  RH  088%=      5-min Rain = 0
KHA1 150525Z 29001KT 01/M01 A3043 RMK A01 T00071012  RH  088%=      5-min Rain = 0
KHA1 150530Z 29002KT 01/M01 A3043 RMK A01 T00071012  RH  088%=      5-min Rain = 0
KHA1 150535Z 29002KT 01/M01 A3043 RMK A01 T00091009  RH  089%=      5-min Rain = 0
KHA1 150540Z 28003KT 01/M01 A3043 RMK A01 T00131006  RH  088%=      5-min Rain = 0
KHA1 150545Z 28003KT 01/M01 A3043 RMK A01 T00071014  RH  087%=      5-min Rain = 0
KHA1 150550Z 28002KT 00/M02 A3043 RMK A01 T00031016  RH  087%=      5-min Rain = 0
KHA1 150555Z 28002KT 00/M02 A3043 RMK A01 T00041015  RH  088%=      5-min Rain = 0

Page generated in 0.009 seconds.